Weather at Letňany Airfield

Public forecast

Using degrees Celsius for public forecast. Weather courtesy of forecast.io.

Closest aviation weather report (METAR) to Letňany Airfield

Closest report is Kbely Air Base, 0.9 nm (1.7 km) SE. Retrieved 2020/10/24 00:30 UTC (0 seconds ago):

LKKB 240030Z 21007KT 9999 FEW038 BKN080 13/12 Q1013

Closest aviation forecast (TAF) to Letňany Airfield

Closest forecast is Kbely Air Base, 0.9 nm (1.7 km) SE. Retrieved 2020-10-24 00:00 UTC (21 minutes ago):

TAF LKKB 232300Z 2400/2500 19006KT CAVOK TEMPO 2400/2405 27012KT 7000 RA SCT010 BKN020